Map

Track Data

SID SEASON NUMBER BASIN SUBBASIN NAME ISO_TIME NATURE LAT LON WMO_WIND WMO_PRES WMO_AGENCY TRACK_TYPE DIST2LAND LANDFALL IFLAG USA_AGENCY USA_ATCF_ID USA_LAT USA_LON USA_RECORD USA_STATUS USA_WIND USA_PRES USA_SSHS USA_R34_NE USA_R34_SE USA_R34_SW USA_R34_NW USA_R50_NE USA_R50_SE USA_R50_SW USA_R50_NW USA_R64_NE USA_R64_SE USA_R64_SW USA_R64_NW USA_POCI USA_ROCI USA_RMW USA_EYE TOKYO_LAT TOKYO_LON TOKYO_GRADE TOKYO_WIND TOKYO_PRES TOKYO_R50_DIR TOKYO_R50_LONG TOKYO_R50_SHORT TOKYO_R30_DIR TOKYO_R30_LONG TOKYO_R30_SHORT TOKYO_LAND CMA_LAT CMA_LON CMA_CAT CMA_WIND CMA_PRES HKO_LAT HKO_LON HKO_CAT HKO_WIND HKO_PRES NEWDELHI_LAT NEWDELHI_LON NEWDELHI_GRADE NEWDELHI_WIND NEWDELHI_PRES NEWDELHI_CI NEWDELHI_DP NEWDELHI_POCI REUNION_LAT REUNION_LON REUNION_TYPE REUNION_WIND REUNION_PRES REUNION_TNUM REUNION_CI REUNION_RMW REUNION_R34_NE REUNION_R34_SE REUNION_R34_SW REUNION_R34_NW REUNION_R50_NE REUNION_R50_SE REUNION_R50_SW REUNION_R50_NW REUNION_R64_NE REUNION_R64_SE REUNION_R64_SW REUNION_R64_NW BOM_LAT BOM_LON BOM_TYPE BOM_WIND BOM_PRES BOM_TNUM BOM_CI BOM_RMW BOM_R34_NE BOM_R34_SE BOM_R34_SW BOM_R34_NW BOM_R50_NE BOM_R50_SE BOM_R50_SW BOM_R50_NW BOM_R64_NE BOM_R64_SE BOM_R64_SW BOM_R64_NW BOM_ROCI BOM_POCI BOM_EYE BOM_POS_METHOD BOM_PRES_METHOD NADI_LAT NADI_LON NADI_CAT NADI_WIND NADI_PRES WELLINGTON_LAT WELLINGTON_LON WELLINGTON_WIND WELLINGTON_PRES DS824_LAT DS824_LON DS824_STAGE DS824_WIND DS824_PRES TD9636_LAT TD9636_LON TD9636_STAGE TD9636_WIND TD9636_PRES TD9635_LAT TD9635_LON TD9635_WIND TD9635_PRES TD9635_ROCI NEUMANN_LAT NEUMANN_LON NEUMANN_CLASS NEUMANN_WIND NEUMANN_PRES MLC_LAT MLC_LON MLC_CLASS MLC_WIND MLC_PRES USA_GUST BOM_GUST BOM_GUST_PER REUNION_GUST REUNION_GUST_PER USA_SEAHGT USA_SEARAD_NE USA_SEARAD_SE USA_SEARAD_SW USA_SEARAD_NW STORM_SPEED STORM_DIR
1950270N25309 1950 84 NA NA GEORGE 1950-09-27 06:00:00 TS 24.6000 -51.0000 35 hurdat_atl main 1660 1649 O_____________ hurdat_atl AL071950 24.6000 -51.0000 TS 35 0 8 324
1950270N25309 1950 84 NA NA GEORGE 1950-09-27 09:00:00 TS 24.9126 -51.2497 main 1654 1640 P_____________ AL071950 24.9126 -51.2497 TS 35 0 8 323
1950270N25309 1950 84 NA NA GEORGE 1950-09-27 12:00:00 TS 25.2000 -51.5000 35 hurdat_atl main 1640 1631 O_____________ hurdat_atl AL071950 25.2000 -51.5000 TS 35 0 7 320
1950270N25309 1950 84 NA NA GEORGE 1950-09-27 15:00:00 TS 25.4500 -51.7502 main 1622 1619 P_____________ AL071950 25.4500 -51.7502 TS 35 0 7 318
1950270N25309 1950 84 NA NA GEORGE 1950-09-27 18:00:00 TS 25.7000 -52.0000 35 hurdat_atl main 1619 1612 O_____________ hurdat_atl AL071950 25.7000 -52.0000 TS 35 0 7 320
1950270N25309 1950 84 NA NA GEORGE 1950-09-27 21:00:00 TS 25.9774 -52.2428 main 1618 1603 P_____________ AL071950 25.9774 -52.2428 TS 37 0 8 323
1950270N25309 1950 84 NA NA GEORGE 1950-09-28 00:00:00 TS 26.3000 -52.5000 40 hurdat_atl main 1608 1603 O_____________ hurdat_atl AL071950 26.3000 -52.5000 TS 40 0 9 327
1950270N25309 1950 84 NA NA GEORGE 1950-09-28 03:00:00 TS 26.6923 -52.7702 main 1606 1602 P_____________ AL071950 26.6923 -52.7702 TS 40 0 10 326
1950270N25309 1950 84 NA NA GEORGE 1950-09-28 06:00:00 TS 27.1000 -53.1000 40 hurdat_atl main 1606 1594 O_____________ hurdat_atl AL071950 27.1000 -53.1000 TS 40 0 10 319
1950270N25309 1950 84 NA NA GEORGE 1950-09-28 09:00:00 TS 27.4725 -53.5200 main 1600 1582 P_____________ AL071950 27.4725 -53.5200 TS 40 0 11 311
1950270N25309 1950 84 NA NA GEORGE 1950-09-28 12:00:00 TS 27.8000 -54.0000 40 hurdat_atl main 1582 1566 O_____________ hurdat_atl AL071950 27.8000 -54.0000 TS 40 0 11 305
1950270N25309 1950 84 NA NA GEORGE 1950-09-28 15:00:00 TS 28.0724 -54.4928 main 1566 1545 P_____________ AL071950 28.0724 -54.4928 TS 40 0 10 300
1950270N25309 1950 84 NA NA GEORGE 1950-09-28 18:00:00 TS 28.3000 -55.0000 40 hurdat_atl main 1545 1526 O_____________ hurdat_atl AL071950 28.3000 -55.0000 TS 40 0 10 297
1950270N25309 1950 84 NA NA GEORGE 1950-09-28 21:00:00 TS 28.5221 -55.4851 main 1526 1509 P_____________ AL071950 28.5221 -55.4851 TS 40 0 10 294
1950270N25309 1950 84 NA NA GEORGE 1950-09-29 00:00:00 TS 28.7000 -56.0000 40 hurdat_atl main 1509 1485 O_____________ hurdat_atl AL071950 28.7000 -56.0000 TS 40 0 10 287
1950270N25309 1950 84 NA NA GEORGE 1950-09-29 03:00:00 TS 28.8223 -56.5777 main 1478 1450 P_____________ AL071950 28.8223 -56.5777 TS 40 0 11 281
1950270N25309 1950 84 NA NA GEORGE 1950-09-29 06:00:00 TS 28.9000 -57.2000 40 hurdat_atl main 1450 1421 O_____________ hurdat_atl AL071950 28.9000 -57.2000 TS 40 0 11 277
1950270N25309 1950 84 NA NA GEORGE 1950-09-29 09:00:00 TS 28.9575 -57.8577 main 1419 1386 P_____________ AL071950 28.9575 -57.8577 TS 40 0 11 275
1950270N25309 1950 84 NA NA GEORGE 1950-09-29 12:00:00 TS 29.0000 -58.5000 40 hurdat_atl main 1386 1361 O_____________ hurdat_atl AL071950 29.0000 -58.5000 TS 40 0 11 275
1950270N25309 1950 84 NA NA GEORGE 1950-09-29 15:00:00 TS 29.0495 -59.0576 main 1356 1341 P_____________ AL071950 29.0495 -59.0576 TS 40 0 10 276
1950270N25309 1950 84 NA NA GEORGE 1950-09-29 18:00:00 TS 29.1000 -59.6000 40 hurdat_atl main 1341 1315 O_____________ hurdat_atl AL071950 29.1000 -59.6000 TS 40 0 10 276
1950270N25309 1950 84 NA NA GEORGE 1950-09-29 21:00:00 TS 29.1498 -60.1925 main 1315 1301 P_____________ AL071950 29.1498 -60.1925 TS 40 0 11 275
1950270N25309 1950 84 NA NA GEORGE 1950-09-30 00:00:00 TS 29.2000 -60.8000 40 hurdat_atl main 1301 1279 O_____________ hurdat_atl AL071950 29.2000 -60.8000 TS 40 0 11 275
1950270N25309 1950 84 NA NA GEORGE 1950-09-30 03:00:00 TS 29.2499 -61.4150 main 1279 1271 P_____________ AL071950 29.2499 -61.4150 TS 40 0 11 275
1950270N25309 1950 84 NA NA GEORGE 1950-09-30 06:00:00 TS 29.3000 -62.0000 40 hurdat_atl main 1271 1258 O_____________ hurdat_atl AL071950 29.3000 -62.0000 TS 40 0 10 276
1950270N25309 1950 84 NA NA GEORGE 1950-09-30 09:00:00 TS 29.3500 -62.5600 main 1266 1257 P_____________ AL071950 29.3500 -62.5600 TS 42 0 9 277
1950270N25309 1950 84 NA NA GEORGE 1950-09-30 12:00:00 TS 29.4000 -63.0000 45 hurdat_atl main 1257 1253 O_____________ hurdat_atl AL071950 29.4000 -63.0000 TS 45 0 6 279
1950270N25309 1950 84 NA NA GEORGE 1950-09-30 15:00:00 TS 29.4497 -63.2526 main 1251 1251 P_____________ AL071950 29.4497 -63.2526 TS 47 0 4 286
1950270N25309 1950 84 NA NA GEORGE 1950-09-30 18:00:00 TS 29.5000 -63.4000 50 hurdat_atl main 1260 1258 O_____________ hurdat_atl AL071950 29.5000 -63.4000 TS 50 0 3 291
1950270N25309 1950 84 NA NA GEORGE 1950-09-30 21:00:00 TS 29.5500 -63.5575 main 1256 1256 P_____________ AL071950 29.5500 -63.5575 TS 52 0 3 291
1950270N25309 1950 84 NA NA GEORGE 1950-10-01 00:00:00 TS 29.6000 -63.7000 55 hurdat_atl main 1266 1264 O_____________ hurdat_atl AL071950 29.6000 -63.7000 TS 55 0 3 292
1950270N25309 1950 84 NA NA GEORGE 1950-10-01 03:00:00 TS 29.6500 -63.8500 main 1263 1263 P_____________ AL071950 29.6500 -63.8500 TS 57 0 3 291
1950270N25309 1950 84 NA NA GEORGE 1950-10-01 06:00:00 TS 29.7000 -64.0000 60 hurdat_atl main 1269 1255 O_____________ hurdat_atl AL071950 29.7000 -64.0000 TS 60 0 3 292
1950270N25309 1950 84 NA NA GEORGE 1950-10-01 09:00:00 TS 29.7575 -64.1575 main 1247 1239 P_____________ AL071950 29.7575 -64.1575 TS 62 0 3 291
1950270N25309 1950 84 NA NA GEORGE 1950-10-01 12:00:00 TS 29.8000 -64.3000 65 hurdat_atl main 1239 1231 O_____________ hurdat_atl AL071950 29.8000 -64.3000 HU 65 1 2 279
1950270N25309 1950 84 NA NA GEORGE 1950-10-01 15:00:00 TS 29.7925 -64.4076 main 1231 1223 P_____________ AL071950 29.7925 -64.4076 HU 67 1 2 270
1950270N25309 1950 84 NA NA GEORGE 1950-10-01 18:00:00 TS 29.8000 -64.5000 70 978 hurdat_atl main 1223 1209 O_____________ hurdat_atl AL071950 29.8000 -64.5000 HU 70 978 1 2 295
1950270N25309 1950 84 NA NA GEORGE 1950-10-01 21:00:00 TS 29.8700 -64.6000 main 1209 1195 P_____________ AL071950 29.8700 -64.6000 HU 72 1 3 319
1950270N25309 1950 84 NA NA GEORGE 1950-10-02 00:00:00 TS 30.0000 -64.7000 75 hurdat_atl main 1195 1174 O_____________ hurdat_atl AL071950 30.0000 -64.7000 HU 75 1 4 332
1950270N25309 1950 84 NA NA GEORGE 1950-10-02 03:00:00 TS 30.1850 -64.8000 main 1174 1153 P_____________ AL071950 30.1850 -64.8000 HU 77 1 4 337
1950270N25309 1950 84 NA NA GEORGE 1950-10-02 06:00:00 TS 30.4000 -64.9000 80 hurdat_atl main 1153 1133 O_____________ hurdat_atl AL071950 30.4000 -64.9000 HU 80 1 5 341
1950270N25309 1950 84 NA NA GEORGE 1950-10-02 09:00:00 TS 30.6149 -64.9701 main 1133 1113 P_____________ AL071950 30.6149 -64.9701 HU 82 1 4 337
1950270N25309 1950 84 NA NA GEORGE 1950-10-02 12:00:00 TS 30.8000 -65.1000 85 hurdat_atl main 1113 1083 O_____________ hurdat_atl AL071950 30.8000 -65.1000 HU 85 2 5 311
1950270N25309 1950 84 NA NA GEORGE 1950-10-02 15:00:00 TS 30.9151 -65.3775 main 1083 1053 P_____________ AL071950 30.9151 -65.3775 HU 85 2 6 291
1950270N25309 1950 84 NA NA GEORGE 1950-10-02 18:00:00 TS 31.0000 -65.7000 85 hurdat_atl main 1053 1031 O_____________ hurdat_atl AL071950 31.0000 -65.7000 HU 85 2 5 290
1950270N25309 1950 84 NA NA GEORGE 1950-10-02 21:00:00 TS 31.0924 -65.9502 main 1023 1001 P_____________ AL071950 31.0924 -65.9502 HU 87 2 5 295
1950270N25309 1950 84 NA NA GEORGE 1950-10-03 00:00:00 TS 31.2000 -66.2000 90 hurdat_atl main 1001 971 O_____________ hurdat_atl AL071950 31.2000 -66.2000 HU 90 2 5 298
1950270N25309 1950 84 NA NA GEORGE 1950-10-03 03:00:00 TS 31.3349 -66.4851 main 971 935 P_____________ AL071950 31.3349 -66.4851 HU 90 2 6 300
1950270N25309 1950 84 NA NA GEORGE 1950-10-03 06:00:00 TS 31.5000 -66.8000 90 hurdat_atl main 935 897 O_____________ hurdat_atl AL071950 31.5000 -66.8000 HU 90 2 7 298
1950270N25309 1950 84 NA NA GEORGE 1950-10-03 09:00:00 TS 31.6477 -67.1726 main 897 855 P_____________ AL071950 31.6477 -67.1726 HU 90 2 7 304
1950270N25309 1950 84 NA NA GEORGE 1950-10-03 12:00:00 TS 31.9000 -67.5000 90 969 hurdat_atl main 855 816 O_____________ hurdat_atl AL071950 31.9000 -67.5000 HU 90 969 2 8 328
1950270N25309 1950 84 NA NA GEORGE 1950-10-03 15:00:00 TS 32.3324 -67.6877 main 816 775 P_____________ AL071950 32.3324 -67.6877 HU 92 2 10 346
1950270N25309 1950 84 NA NA GEORGE 1950-10-03 18:00:00 TS 32.9000 -67.8000 95 hurdat_atl main 775 730 O_____________ hurdat_atl AL071950 32.9000 -67.8000 HU 95 2 12 348
1950270N25309 1950 84 NA NA GEORGE 1950-10-03 21:00:00 TS 33.5124 -67.9735 main 730 704 P_____________ AL071950 33.5124 -67.9735 HU 95 2 13 353
1950270N25309 1950 84 NA NA GEORGE 1950-10-04 00:00:00 TS 34.2000 -68.0000 95 hurdat_atl main 704 695 O_____________ hurdat_atl AL071950 34.2000 -68.0000 HU 95 2 14 6
1950270N25309 1950 84 NA NA GEORGE 1950-10-04 03:00:00 TS 34.9269 -67.7840 main 703 701 P_____________ AL071950 34.9269 -67.7840 HU 95 2 16 21
1950270N25309 1950 84 NA NA GEORGE 1950-10-04 06:00:00 TS 35.7000 -67.3000 95 hurdat_atl main 707 654 O_____________ hurdat_atl AL071950 35.7000 -67.3000 HU 95 2 18 32
1950270N25309 1950 84 NA NA GEORGE 1950-10-04 09:00:00 TS 36.4775 -66.5964 main 648 607 P_____________ AL071950 36.4775 -66.5964 HU 95 2 21 39
1950270N25309 1950 84 NA NA GEORGE 1950-10-04 12:00:00 TS 37.3000 -65.7000 95 960 hurdat_atl main 612 590 O_____________ hurdat_atl AL071950 37.3000 -65.7000 HU 95 960 2 22 41
1950270N25309 1950 84 NA NA GEORGE 1950-10-04 15:00:00 TS 38.1453 -64.7988 main 596 515 P_____________ AL071950 38.1453 -64.7988 HU 95 2 24 41
1950270N25309 1950 84 NA NA GEORGE 1950-10-04 18:00:00 TS 39.1000 -63.7000 95 hurdat_atl main 507 447 O_____________ hurdat_atl AL071950 39.1000 -63.7000 HU 95 2 28 43
1950270N25309 1950 84 NA NA GEORGE 1950-10-04 21:00:00 TS 40.1651 -62.3489 main 442 408 P_____________ AL071950 40.1651 -62.3489 HU 90 2 32 45
1950270N25309 1950 84 NA NA GEORGE 1950-10-05 00:00:00 ET 41.4000 -60.7000 85 hurdat_atl main 404 326 O_____________ hurdat_atl AL071950 41.4000 -60.7000 EX 85 -4 37 45
1950270N25309 1950 84 NA NA GEORGE 1950-10-05 03:00:00 ET 42.8004 -58.8212 main 323 299 P_____________ AL071950 42.8004 -58.8212 EX 77 -4 42 46
1950270N25309 1950 84 NA NA GEORGE 1950-10-05 06:00:00 ET 44.3000 -56.6000 70 hurdat_atl main 286 107 O_____________ hurdat_atl AL071950 44.3000 -56.6000 EX 70 -4 45 49
1950270N25309 1950 84 NA NA GEORGE 1950-10-05 09:00:00 ET 45.7659 -53.9858 main 94 40 P_____________ AL071950 45.7659 -53.9858 EX 67 -4 47 52
1950270N25309 1950 84 NA NA GEORGE 1950-10-05 12:00:00 ET 47.2000 -51.2000 65 hurdat_atl main 110 110 O_____________ hurdat_atl AL071950 47.2000 -51.2000 EX 65 -4 46 53
1950270N25309 1950 84 NA NA GEORGE 1950-10-05 15:00:00 ET 48.5613 -48.5887 main 313 313 P_____________ AL071950 48.5613 -48.5887 EX 62 -4 44 52
1950270N25309 1950 84 NA NA GEORGE 1950-10-05 18:00:00 ET 49.9000 -45.9000 60 hurdat_atl main 536 536 O_____________ hurdat_atl AL071950 49.9000 -45.9000 EX 60 -4 46 54
1950270N25309 1950 84 NA NA GEORGE 1950-10-05 21:00:00 ET 51.2229 -42.8164 main 785 785 P_____________ AL071950 51.2229 -42.8164 EX 57 -4 47 56
1950270N25309 1950 84 NA NA GEORGE 1950-10-06 00:00:00 ET 52.5000 -39.7000 55 hurdat_atl main 867 805 O_____________ hurdat_atl AL071950 52.5000 -39.7000 EX 55 -4 44 56
1950270N25309 1950 84 NA NA GEORGE 1950-10-06 03:00:00 ET 53.7054 -36.8265 main 803 779 P_____________ AL071950 53.7054 -36.8265 EX 55 -4 41 54
1950270N25309 1950 84 NA NA GEORGE 1950-10-06 06:00:00 ET 54.9000 -34.1000 55 hurdat_atl main 784 783 O_____________ hurdat_atl AL071950 54.9000 -34.1000 EX 55 -4 40 52
1950270N25309 1950 84 NA NA GEORGE 1950-10-06 09:00:00 ET 56.1745 -31.2307 main 815 799 P_____________ AL071950 56.1745 -31.2307 EX 55 -4 39 52
1950270N25309 1950 84 NA NA GEORGE 1950-10-06 12:00:00 ET 57.3000 -28.6000 55 hurdat_atl main 786 664 O_____________ hurdat_atl AL071950 57.3000 -28.6000 EX 55 -4 32 53
1950270N25309 1950 84 NA NA GEORGE 1950-10-06 15:00:00 ET 58.1102 -26.4940 main 662 575 P_____________ AL071950 58.1102 -26.4940 EX 55 -4 25 56
1950270N25309 1950 84 NA NA GEORGE 1950-10-06 18:00:00 ET 58.7000 -24.7000 55 hurdat_atl main 574 510 O_____________ hurdat_atl AL071950 58.7000 -24.7000 EX 55 -4 21 61
1950270N25309 1950 84 NA NA GEORGE 1950-10-06 21:00:00 ET 59.1189 -22.9705 main 508 445 P_____________ AL071950 59.1189 -22.9705 EX 55 -4 21 67
1950270N25309 1950 84 NA NA GEORGE 1950-10-07 00:00:00 ET 59.5000 -21.0000 55 hurdat_atl main 444 387 O_____________ hurdat_atl AL071950 59.5000 -21.0000 EX 55 -4 25 70
1950270N25309 1950 84 NA NA GEORGE 1950-10-07 03:00:00 ET 59.9559 -18.3839 main 376 360 P_____________ AL071950 59.9559 -18.3839 EX 55 -4 31 71
1950270N25309 1950 84 NA NA GEORGE 1950-10-07 06:00:00 ET 60.5000 -15.2000 55 hurdat_atl main 366 365 O_____________ hurdat_atl AL071950 60.5000 -15.2000 EX 55 -4 36 71
1950270N25309 1950 84 NA NA GEORGE 1950-10-07 09:00:00 ET 61.1503 -11.5301 main 376 372 P_____________ AL071950 61.1503 -11.5301 EX 55 -4 39 71
1950270N25309 1950 84 NA NA GEORGE 1950-10-07 12:00:00 ET 61.8000 -7.50000 55 hurdat_atl main 380 O_____________ hurdat_atl AL071950 61.8000 -7.50000 EX 55 -4 40 71

About IBTrACS Database

This database is a web-friendly format of International Best Track Archive for Climate Stewardship (IBTrACS), a global best track data archive curated by NOAA dating back to 1842.

Updated: 2021-11-26